createdAt,value
2022-12-25T00:01:22.921Z,100113.50
2022-12-25T00:03:49.661Z,100124.56
2022-12-25T00:06:16.217Z,100121.94
2022-12-25T00:08:42.702Z,100115.53
2022-12-25T00:11:11.310Z,100115.53
2022-12-25T00:13:38.065Z,100128.06
2022-12-25T00:16:13.496Z,100121.53
2022-12-25T00:18:40.146Z,100128.31
2022-12-25T00:21:06.904Z,100134.34
2022-12-25T00:23:33.910Z,100137.44
2022-12-25T00:26:03.303Z,100141.56
2022-12-25T00:28:29.871Z,100134.53
2022-12-25T00:30:56.437Z,100127.56
2022-12-25T00:33:25.060Z,100119.88
2022-12-25T00:36:01.074Z,100116.97
2022-12-25T00:38:27.916Z,100114.94
2022-12-25T00:40:54.536Z,100108.53
2022-12-25T00:43:21.295Z,100120.00
2022-12-25T00:45:57.579Z,100115.19
2022-12-25T00:48:24.483Z,100117.22
2022-12-25T00:50:54.998Z,100112.06
2022-12-25T00:53:21.604Z,100113.75
2022-12-25T00:55:53.900Z,100108.53
2022-12-25T00:58:20.498Z,100116.13
2022-12-25T01:00:47.800Z,100115.78
2022-12-25T01:03:14.495Z,100119.53
2022-12-25T01:05:41.095Z,100123.84
2022-12-25T01:08:07.619Z,100116.59
2022-12-25T01:10:35.271Z,100123.84
2022-12-25T01:13:01.873Z,100117.38
2022-12-25T01:15:28.450Z,100123.75
2022-12-25T01:17:54.938Z,100121.94
2022-12-25T01:20:21.573Z,100129.63
2022-12-25T01:22:48.066Z,100136.34
2022-12-25T01:25:14.630Z,100128.66
2022-12-25T01:27:41.177Z,100139.16
2022-12-25T01:30:07.993Z,100150.69
2022-12-25T01:32:34.509Z,100150.69
2022-12-25T01:35:01.016Z,100155.03
2022-12-25T01:37:27.543Z,100158.28
2022-12-25T01:39:54.127Z,100161.53
2022-12-25T01:42:21.896Z,100166.72
2022-12-25T01:44:48.728Z,100161.53
2022-12-25T01:47:15.773Z,100166.56
2022-12-25T01:49:42.575Z,100169.34
2022-12-25T01:52:10.650Z,100171.50
2022-12-25T01:54:38.729Z,100168.47
2022-12-25T01:57:07.097Z,100165.25
2022-12-25T01:59:33.596Z,100165.75
2022-12-25T02:02:00.507Z,100169.22
2022-12-25T02:04:40.066Z,100168.16
2022-12-25T02:07:26.821Z,100159.25
2022-12-25T02:09:53.512Z,100171.13
2022-12-25T02:12:21.428Z,100158.28
2022-12-25T02:14:48.479Z,100154.75
2022-12-25T02:17:21.147Z,100159.72
2022-12-25T02:20:01.907Z,100145.72
2022-12-25T02:22:33.302Z,100144.53
2022-12-25T02:25:11.842Z,100140.94
2022-12-25T02:27:56.711Z,100137.09
2022-12-25T02:30:23.302Z,100138.91
2022-12-25T02:33:19.980Z,100127.69
2022-12-25T02:35:47.702Z,100128.56
2022-12-25T02:38:16.299Z,100113.84
2022-12-25T02:40:43.847Z,100113.00
2022-12-25T02:43:34.105Z,100112.88
2022-12-25T02:46:26.715Z,100114.69
2022-12-25T02:49:13.434Z,100117.31
2022-12-25T02:52:19.708Z,100110.22
2022-12-25T02:55:09.725Z,100099.78
2022-12-25T02:57:56.227Z,100097.94
2022-12-25T03:00:41.470Z,100090.97
2022-12-25T03:03:27.388Z,100093.50
2022-12-25T03:06:13.186Z,100088.06
2022-12-25T03:08:40.467Z,100084.97
2022-12-25T03:11:27.035Z,100073.97
2022-12-25T03:13:54.701Z,100069.03
2022-12-25T03:16:40.045Z,100071.56
2022-12-25T03:19:26.600Z,100061.22
2022-12-25T03:22:11.974Z,100063.75
2022-12-25T03:24:57.523Z,100064.34
2022-12-25T03:27:24.536Z,100068.44
2022-12-25T03:30:09.570Z,100059.31
2022-12-25T03:32:40.099Z,100049.06
2022-12-25T03:35:25.346Z,100054.22
2022-12-25T03:38:09.883Z,100058.34
2022-12-25T03:41:01.339Z,100060.41
2022-12-25T03:43:49.069Z,100064.81
2022-12-25T03:46:34.586Z,100060.25
2022-12-25T03:49:24.110Z,100060.50
2022-12-25T03:52:09.149Z,100060.25
2022-12-25T03:54:54.132Z,100051.00
2022-12-25T03:57:39.597Z,100065.75
2022-12-25T04:00:24.926Z,100066.00
2022-12-25T04:03:10.160Z,100065.50
2022-12-25T04:05:55.524Z,100065.50
2022-12-25T04:08:40.706Z,100062.00
2022-12-25T04:11:25.809Z,100048.41
2022-12-25T04:14:10.912Z,100053.22
2022-12-25T04:16:56.294Z,100055.66
2022-12-25T04:19:41.549Z,100055.84
2022-12-25T04:22:26.917Z,100044.44
2022-12-25T04:25:12.290Z,100049.97
2022-12-25T04:27:57.392Z,100042.75
2022-12-25T04:30:42.593Z,100031.66
2022-12-25T04:33:27.584Z,100039.38
2022-12-25T04:36:09.168Z,100036.22
2022-12-25T04:38:35.838Z,100030.53
2022-12-25T04:41:02.524Z,100039.44
2022-12-25T04:43:29.224Z,100046.63
2022-12-25T04:45:56.181Z,100047.72
2022-12-25T04:48:22.823Z,100054.72
2022-12-25T04:50:49.337Z,100047.34
2022-12-25T04:53:16.125Z,100048.28
2022-12-25T04:55:42.744Z,100059.50
2022-12-25T04:58:09.349Z,100059.50
2022-12-25T05:00:35.842Z,100048.69
2022-12-25T05:03:02.401Z,100052.75
2022-12-25T05:05:29.142Z,100045.53
2022-12-25T05:07:56.461Z,100041.31
2022-12-25T05:10:22.959Z,100041.44
2022-12-25T05:12:49.576Z,100037.44
2022-12-25T05:15:16.105Z,100031.31
2022-12-25T05:17:42.618Z,100036.28
2022-12-25T05:20:09.164Z,100033.13
2022-12-25T05:22:35.693Z,100034.69
2022-12-25T05:25:02.379Z,100033.84
2022-12-25T05:27:28.865Z,100032.75
2022-12-25T05:29:55.404Z,100028.91
2022-12-25T05:32:21.910Z,100035.47
2022-12-25T05:34:48.541Z,100032.41
2022-12-25T05:37:15.098Z,100034.31
2022-12-25T05:39:41.602Z,100030.34
2022-12-25T05:42:08.125Z,100026.88
2022-12-25T05:44:34.665Z,100025.81
2022-12-25T05:47:01.331Z,100018.97
2022-12-25T05:49:28.021Z,100011.75
2022-12-25T05:51:54.593Z,100004.66
2022-12-25T05:54:21.121Z,100001.56
2022-12-25T05:56:47.667Z,100002.75
2022-12-25T05:59:14.162Z,100008.03
2022-12-25T06:01:40.790Z,100006.97
2022-12-25T06:04:12.360Z,100003.94
2022-12-25T06:06:39.814Z,100002.38
2022-12-25T06:09:06.604Z,100003.72
2022-12-25T06:11:33.163Z,100004.56
2022-12-25T06:13:59.664Z,99998.91
2022-12-25T06:16:26.259Z,100006.84
2022-12-25T06:18:53.036Z,100002.25
2022-12-25T06:21:19.594Z,100017.38
2022-12-25T06:23:46.339Z,100010.09
2022-12-25T06:26:16.851Z,100018.97
2022-12-25T06:28:43.450Z,100020.66
2022-12-25T06:31:10.651Z,100019.69
2022-12-25T06:33:37.215Z,100029.53
2022-12-25T06:36:10.950Z,100030.91
2022-12-25T06:38:37.525Z,100024.16
2022-12-25T06:41:11.050Z,100020.53
2022-12-25T06:43:37.757Z,100015.59
2022-12-25T06:46:08.069Z,100023.75
2022-12-25T06:48:35.040Z,100017.47
2022-12-25T06:51:01.991Z,100023.88
2022-12-25T06:53:33.522Z,100026.22
2022-12-25T06:56:07.316Z,100034.16
2022-12-25T06:58:33.846Z,100025.13
2022-12-25T07:01:00.368Z,100020.19
2022-12-25T07:03:27.455Z,100017.09
2022-12-25T07:05:53.977Z,100014.53
2022-12-25T07:08:20.478Z,100010.31
2022-12-25T07:10:46.975Z,100016.22
2022-12-25T07:13:13.516Z,100020.66
2022-12-25T07:15:40.027Z,100017.69
2022-12-25T07:18:06.521Z,100025.63
2022-12-25T07:20:33.003Z,100020.66
2022-12-25T07:22:59.498Z,100027.38
2022-12-25T07:25:26.016Z,100020.41
2022-12-25T07:27:52.599Z,100014.06
2022-12-25T07:30:19.172Z,100008.66
2022-12-25T07:32:50.097Z,100007.59
2022-12-25T07:35:16.953Z,100007.78
2022-12-25T07:37:43.526Z,100002.16
2022-12-25T07:40:10.263Z,99989.03
2022-12-25T07:42:36.854Z,99985.44
2022-12-25T07:45:03.508Z,99976.16
2022-12-25T07:47:30.141Z,99967.03
2022-12-25T07:49:56.633Z,99966.44
2022-12-25T07:52:23.165Z,99969.19
2022-12-25T07:54:49.715Z,99974.72
2022-12-25T07:57:16.271Z,99975.19
2022-12-25T07:59:42.757Z,99965.69
2022-12-25T08:02:10.339Z,99972.91
2022-12-25T08:04:37.006Z,99978.09
2022-12-25T08:07:03.503Z,99979.16
2022-12-25T08:09:30.255Z,99978.44
2022-12-25T08:11:56.865Z,99988.28
2022-12-25T08:14:23.375Z,100003.47
2022-12-25T08:16:50.104Z,100004.06
2022-12-25T08:19:16.694Z,100006.09
2022-12-25T08:21:43.198Z,99998.16
2022-12-25T08:24:10.715Z,99995.16
2022-12-25T08:26:37.286Z,99997.19
2022-12-25T08:29:03.864Z,100008.88
2022-12-25T08:31:30.520Z,100007.19
2022-12-25T08:33:57.740Z,100014.28
2022-12-25T08:36:24.284Z,100012.97
2022-12-25T08:38:50.916Z,100005.72
2022-12-25T08:41:17.469Z,100003.09
2022-12-25T08:43:44.057Z,100000.94
2022-12-25T08:46:10.587Z,100004.56
2022-12-25T08:48:37.201Z,100002.16
2022-12-25T08:51:04.238Z,99992.91
2022-12-25T08:53:30.863Z,100001.22
2022-12-25T08:55:58.189Z,100004.16
2022-12-25T08:58:25.088Z,99985.69
2022-12-25T09:00:51.659Z,99974.78
2022-12-25T09:03:18.284Z,99968.66
2022-12-25T09:05:44.896Z,99956.50
2022-12-25T09:08:11.619Z,99937.63
2022-12-25T09:10:38.147Z,99927.78
2022-12-25T09:13:04.695Z,99924.88
2022-12-25T09:15:31.569Z,99920.06
2022-12-25T09:17:58.142Z,99915.72
2022-12-25T09:20:24.670Z,99913.78
2022-12-25T09:22:51.142Z,99911.97
2022-12-25T09:25:17.915Z,99917.75
2022-12-25T09:27:44.608Z,99917.41
2022-12-25T09:30:11.251Z,99927.63
2022-12-25T09:32:40.142Z,99935.31
2022-12-25T09:35:09.612Z,99932.56
2022-12-25T09:37:36.538Z,99947.22
2022-12-25T09:40:03.487Z,99950.84
2022-12-25T09:42:31.357Z,99958.66
2022-12-25T09:44:59.544Z,99964.91
2022-12-25T09:47:27.999Z,99961.91
2022-12-25T09:49:57.491Z,99970.44
2022-12-25T09:52:33.116Z,99972.97
2022-12-25T09:55:00.466Z,99968.25
2022-12-25T09:57:27.022Z,99957.41
2022-12-25T09:59:56.614Z,99956.47
2022-12-25T10:02:26.403Z,99961.63
2022-12-25T10:04:56.599Z,99951.03
2022-12-25T10:07:23.155Z,99950.91
2022-12-25T10:10:04.760Z,99945.25
2022-12-25T10:12:39.171Z,99928.38
2022-12-25T10:15:24.557Z,99934.28
2022-12-25T10:18:06.687Z,99937.75
2022-12-25T10:20:53.681Z,99929.66
2022-12-25T10:23:28.504Z,99914.63
2022-12-25T10:25:55.425Z,99909.06
2022-12-25T10:28:41.724Z,99909.66
2022-12-25T10:31:19.458Z,99899.88
2022-12-25T10:33:46.300Z,99892.91
2022-12-25T10:36:14.076Z,99883.03
2022-12-25T10:38:40.614Z,99886.41
2022-12-25T10:41:09.901Z,99875.66
2022-12-25T10:43:42.190Z,99880.69
2022-12-25T10:46:12.619Z,99874.44
2022-12-25T10:48:43.655Z,99879.75
2022-12-25T10:51:10.306Z,99880.59
2022-12-25T10:53:38.188Z,99876.25
2022-12-25T10:56:05.337Z,99876.25
2022-12-25T10:58:32.165Z,99873.47
2022-12-25T11:01:00.181Z,99878.50
2022-12-25T11:03:28.591Z,99873.19
2022-12-25T11:05:55.340Z,99871.28
2022-12-25T11:08:23.017Z,99858.84
2022-12-25T11:10:53.303Z,99853.44
2022-12-25T11:13:29.437Z,99855.09
2022-12-25T11:16:18.023Z,99848.72
2022-12-25T11:18:46.087Z,99839.53
2022-12-25T11:21:19.918Z,99833.13
2022-12-25T11:23:47.122Z,99815.00
2022-12-25T11:26:14.051Z,99818.13
2022-12-25T11:28:41.892Z,99812.53
2022-12-25T11:31:09.640Z,99815.06
2022-12-25T11:33:37.811Z,99809.66
2022-12-25T11:36:08.278Z,99806.00
2022-12-25T11:38:34.794Z,99806.00
2022-12-25T11:41:01.486Z,99802.38
2022-12-25T11:43:29.946Z,99809.38
2022-12-25T11:46:03.402Z,99804.53
2022-12-25T11:48:31.782Z,99809.44
2022-12-25T11:50:59.526Z,99807.22
2022-12-25T11:53:41.077Z,99803.59
2022-12-25T11:56:28.148Z,99800.81
2022-12-25T11:58:55.512Z,99790.31
2022-12-25T12:01:35.739Z,99783.19
2022-12-25T12:04:03.505Z,99777.06
2022-12-25T12:06:32.940Z,99779.72
2022-12-25T12:09:07.146Z,99761.03
2022-12-25T12:11:36.585Z,99748.31
2022-12-25T12:14:20.685Z,99747.31
2022-12-25T12:16:47.369Z,99746.66
2022-12-25T12:19:31.879Z,99735.03
2022-12-25T12:21:59.077Z,99727.09
2022-12-25T12:24:28.171Z,99728.91
2022-12-25T12:27:01.435Z,99722.50
2022-12-25T12:29:32.183Z,99726.69
2022-12-25T12:32:00.249Z,99722.91
2022-12-25T12:34:26.838Z,99718.16
2022-12-25T12:36:59.854Z,99718.03
2022-12-25T12:39:26.935Z,99710.78
2022-12-25T12:41:53.506Z,99708.81
2022-12-25T12:44:20.095Z,99707.75
2022-12-25T12:46:54.317Z,99711.94
2022-12-25T12:49:25.085Z,99709.16
2022-12-25T12:52:02.502Z,99713.34
2022-12-25T12:54:29.011Z,99711.53
2022-12-25T12:56:56.768Z,99712.22
2022-12-25T12:59:23.838Z,99711.25
2022-12-25T13:01:50.492Z,99725.38
2022-12-25T13:04:25.047Z,99719.91
2022-12-25T13:06:51.545Z,99713.91
2022-12-25T13:09:18.057Z,99711.25
2022-12-25T13:11:44.625Z,99717.41
2022-12-25T13:14:16.471Z,99714.88
2022-12-25T13:16:44.292Z,99725.50
2022-12-25T13:19:24.567Z,99725.63
2022-12-25T13:21:58.325Z,99719.66
2022-12-25T13:24:26.129Z,99728.72
2022-12-25T13:26:52.743Z,99733.88
2022-12-25T13:29:22.798Z,99729.69
2022-12-25T13:31:49.543Z,99731.50
2022-12-25T13:34:20.859Z,99736.06
2022-12-25T13:36:47.398Z,99730.91
2022-12-25T13:39:15.358Z,99723.91
2022-12-25T13:42:06.937Z,99723.06
2022-12-25T13:44:39.543Z,99731.16
2022-12-25T13:47:16.139Z,99736.47
2022-12-25T13:49:42.820Z,99732.84
2022-12-25T13:52:10.227Z,99734.81
2022-12-25T13:54:36.738Z,99728.50
2022-12-25T13:57:03.251Z,99719.72
2022-12-25T13:59:30.109Z,99717.88
2022-12-25T14:01:57.828Z,99708.25
2022-12-25T14:04:24.558Z,99697.66
2022-12-25T14:06:51.542Z,99687.03
2022-12-25T14:09:18.042Z,99679.91
2022-12-25T14:11:45.906Z,99679.91
2022-12-25T14:14:19.451Z,99687.03
2022-12-25T14:16:48.721Z,99695.00
2022-12-25T14:19:31.144Z,99687.88
2022-12-25T14:22:04.906Z,99692.22
2022-12-25T14:24:31.610Z,99694.00
2022-12-25T14:27:13.555Z,99690.53
2022-12-25T14:29:41.817Z,99686.06
2022-12-25T14:32:10.869Z,99686.06
2022-12-25T14:34:37.430Z,99697.66
2022-12-25T14:37:03.910Z,99696.66
2022-12-25T14:39:37.398Z,99689.69
2022-12-25T14:42:19.188Z,99692.22
2022-12-25T14:44:55.296Z,99695.72
2022-12-25T14:47:22.010Z,99696.53
2022-12-25T14:49:48.545Z,99704.50
2022-12-25T14:52:26.178Z,99708.97
2022-12-25T14:54:56.686Z,99701.84
2022-12-25T14:57:38.770Z,99705.50
2022-12-25T15:00:08.011Z,99700.31
2022-12-25T15:02:40.279Z,99696.94
2022-12-25T15:05:27.924Z,99693.47
2022-12-25T15:08:10.985Z,99683.13
2022-12-25T15:13:24.976Z,99678.09
2022-12-25T15:15:52.984Z,99679.88
2022-12-25T15:18:19.793Z,99689.66
2022-12-25T15:20:46.306Z,99691.47
2022-12-25T15:23:20.223Z,99690.66
2022-12-25T15:25:51.051Z,99693.44
2022-12-25T15:28:17.666Z,99706.84
2022-12-25T15:30:44.286Z,99705.97
2022-12-25T15:33:13.300Z,99715.75
2022-12-25T15:35:39.924Z,99705.97
2022-12-25T15:38:06.551Z,99712.28
2022-12-25T15:40:33.131Z,99701.78
2022-12-25T15:42:59.903Z,99696.63
2022-12-25T15:45:27.512Z,99692.28
2022-12-25T15:47:54.252Z,99694.09
2022-12-25T15:50:21.033Z,99683.78
2022-12-25T15:52:47.647Z,99697.03
2022-12-25T15:55:14.513Z,99694.50
2022-12-25T15:57:42.029Z,99695.38
2022-12-25T16:00:11.067Z,99687.53
2022-12-25T16:02:40.614Z,99674.41
2022-12-25T16:05:10.487Z,99694.66
2022-12-25T16:07:37.556Z,99707.94
2022-12-25T16:10:05.230Z,99713.22
2022-12-25T16:12:31.851Z,99712.41
2022-12-25T16:14:58.540Z,99724.69
2022-12-25T16:17:25.065Z,99725.50
2022-12-25T16:19:51.607Z,99720.19
2022-12-25T16:22:23.642Z,99723.00
2022-12-25T16:24:50.353Z,99725.91
2022-12-25T16:27:16.929Z,99730.38
2022-12-25T16:29:43.670Z,99728.84
2022-12-25T16:32:13.332Z,99734.13
2022-12-25T16:34:40.688Z,99729.94
2022-12-25T16:37:07.406Z,99729.94
2022-12-25T16:39:33.902Z,99728.41
2022-12-25T16:42:00.668Z,99736.63
2022-12-25T16:44:27.252Z,99723.91
2022-12-25T16:46:53.899Z,99721.81
2022-12-25T16:49:20.477Z,99718.88
2022-12-25T16:51:47.025Z,99724.06
2022-12-25T16:54:13.495Z,99726.84
2022-12-25T16:56:40.468Z,99720.84
2022-12-25T16:59:07.060Z,99705.91
2022-12-25T17:01:33.644Z,99707.13
2022-12-25T17:04:03.483Z,99703.81
2022-12-25T17:06:30.123Z,99700.28
2022-12-25T17:08:57.628Z,99699.34
2022-12-25T17:11:27.446Z,99702.38
2022-12-25T17:13:54.323Z,99700.56
2022-12-25T17:16:22.858Z,99697.91
2022-12-25T17:18:52.735Z,99695.25
2022-12-25T17:21:19.260Z,99710.59
2022-12-25T17:23:45.796Z,99723.03
2022-12-25T17:26:13.630Z,99727.16
2022-12-25T17:28:40.321Z,99725.63
2022-12-25T17:31:07.921Z,99745.72
2022-12-25T17:33:38.227Z,99757.00
2022-12-25T17:36:05.500Z,99759.94
2022-12-25T17:38:32.354Z,99765.13
2022-12-25T17:40:59.139Z,99783.28
2022-12-25T17:43:25.822Z,99777.97
2022-12-25T17:45:52.401Z,99773.13
2022-12-25T17:48:19.085Z,99768.88
2022-12-25T17:50:45.795Z,99766.34
2022-12-25T17:53:12.477Z,99761.44
2022-12-25T17:55:41.013Z,99759.03
2022-12-25T17:58:08.114Z,99757.50
2022-12-25T18:00:35.100Z,99758.47
2022-12-25T18:03:08.817Z,99759.56
2022-12-25T18:05:37.581Z,99763.16
2022-12-25T18:08:05.220Z,99759.25
2022-12-25T18:10:41.713Z,99747.81
2022-12-25T18:13:09.813Z,99748.06
2022-12-25T18:15:37.138Z,99748.34
2022-12-25T18:18:03.989Z,99744.63
2022-12-25T18:20:35.915Z,99735.84
2022-12-25T18:23:06.025Z,99736.84
2022-12-25T18:25:33.672Z,99745.88
2022-12-25T18:28:02.482Z,99731.78
2022-12-25T18:30:29.509Z,99737.53
2022-12-25T18:32:56.077Z,99747.81
2022-12-25T18:35:22.627Z,99753.50
2022-12-25T18:37:49.266Z,99751.81
2022-12-25T18:40:15.820Z,99758.66
2022-12-25T18:42:43.303Z,99755.31
2022-12-25T18:45:11.008Z,99760.00
2022-12-25T18:47:37.545Z,99759.31
2022-12-25T18:50:04.703Z,99758.84
2022-12-25T18:52:49.767Z,99752.94
2022-12-25T18:55:17.827Z,99760.44
2022-12-25T18:57:44.527Z,99758.63
2022-12-25T19:00:11.132Z,99765.88
2022-12-25T19:02:37.753Z,99763.53
2022-12-25T19:05:05.832Z,99759.53
2022-12-25T19:07:32.416Z,99762.00
2022-12-25T19:09:58.913Z,99755.97
2022-12-25T19:12:25.487Z,99750.63
2022-12-25T19:14:52.782Z,99754.47
2022-12-25T19:17:19.379Z,99761.13
2022-12-25T19:19:46.021Z,99759.06
2022-12-25T19:22:12.551Z,99761.22
2022-12-25T19:24:39.124Z,99777.84
2022-12-25T19:27:05.839Z,99774.69
2022-12-25T19:29:32.701Z,99786.34
2022-12-25T19:31:59.300Z,99787.91
2022-12-25T19:34:25.879Z,99783.13
2022-12-25T19:36:52.398Z,99783.72
2022-12-25T19:39:18.950Z,99785.06
2022-12-25T19:41:47.307Z,99783.50
2022-12-25T19:44:13.891Z,99772.91
2022-12-25T19:46:40.721Z,99774.47
2022-12-25T19:49:08.002Z,99768.44
2022-12-25T19:51:38.341Z,99764.47
2022-12-25T19:54:05.302Z,99765.47
2022-12-25T19:56:32.134Z,99762.59
2022-12-25T19:58:58.742Z,99767.19
2022-12-25T20:01:26.669Z,99779.81
2022-12-25T20:03:53.228Z,99773.91
2022-12-25T20:06:29.675Z,99780.06
2022-12-25T20:08:58.140Z,99769.47
2022-12-25T20:11:25.713Z,99776.34
2022-12-25T20:13:52.236Z,99778.50
2022-12-25T20:16:18.796Z,99787.28
2022-12-25T20:18:45.365Z,99785.81
2022-12-25T20:21:14.046Z,99774.41
2022-12-25T20:23:41.202Z,99771.19
2022-12-25T20:26:07.775Z,99776.47
2022-12-25T20:28:34.949Z,99772.84
2022-12-25T20:31:05.431Z,99760.22
2022-12-25T20:33:31.947Z,99772.13
2022-12-25T20:36:01.327Z,99773.47
2022-12-25T20:38:28.194Z,99776.47
2022-12-25T20:41:26.241Z,99778.16
2022-12-25T20:43:47.992Z,99787.19
2022-12-25T20:46:14.513Z,99787.19
2022-12-25T20:48:41.754Z,99782.84
2022-12-25T20:51:18.235Z,99788.97
2022-12-25T20:53:45.157Z,99792.81
2022-12-25T20:56:12.124Z,99799.19
2022-12-25T20:58:38.739Z,99812.28
2022-12-25T21:01:06.420Z,99808.19
2022-12-25T21:03:33.322Z,99815.91
2022-12-25T21:06:00.051Z,99813.34
2022-12-25T21:08:26.892Z,99811.44
2022-12-25T21:10:55.670Z,99811.94
2022-12-25T21:13:23.467Z,99810.03
2022-12-25T21:15:50.750Z,99807.47
2022-12-25T21:18:20.125Z,99810.97
2022-12-25T21:20:47.194Z,99812.66
2022-12-25T21:23:13.819Z,99816.59
2022-12-25T21:25:40.797Z,99828.75
2022-12-25T21:28:07.362Z,99815.41
2022-12-25T21:30:34.097Z,99813.97
2022-12-25T21:33:19.426Z,99823.94
2022-12-25T21:35:45.993Z,99832.13
2022-12-25T21:38:19.265Z,99838.38
2022-12-25T21:40:45.947Z,99839.19
2022-12-25T21:43:14.203Z,99832.94
2022-12-25T21:45:40.933Z,99837.84
2022-12-25T21:48:07.508Z,99845.53
2022-12-25T21:50:52.766Z,99842.56
2022-12-25T21:53:19.510Z,99844.22
2022-12-25T21:56:04.506Z,99836.19
2022-12-25T21:58:31.169Z,99836.53
2022-12-25T22:01:01.598Z,99836.28
2022-12-25T22:03:28.236Z,99839.78
2022-12-25T22:06:21.450Z,99842.56
2022-12-25T22:08:48.245Z,99843.78
2022-12-25T22:11:33.324Z,99847.84
2022-12-25T22:14:18.297Z,99852.88
2022-12-25T22:17:03.418Z,99851.56
2022-12-25T22:19:45.378Z,99865.03
2022-12-25T22:22:12.419Z,99867.56
2022-12-25T22:24:39.158Z,99855.19
2022-12-25T22:27:05.745Z,99858.16
2022-12-25T22:29:32.281Z,99851.22
2022-12-25T22:31:59.006Z,99839.91
2022-12-25T22:34:26.280Z,99841.47
2022-12-25T22:36:52.913Z,99844.47
2022-12-25T22:39:19.685Z,99845.44
2022-12-25T22:41:46.251Z,99854.34
2022-12-25T22:44:17.646Z,99845.09
2022-12-25T22:46:44.827Z,99852.28
2022-12-25T22:49:11.663Z,99871.88
2022-12-25T22:51:38.180Z,99878.47
2022-12-25T22:54:04.723Z,99872.34
2022-12-25T22:56:31.330Z,99875.34
2022-12-25T22:58:57.835Z,99884.59
2022-12-25T23:01:26.442Z,99892.03
2022-12-25T23:03:53.786Z,99887.47
2022-12-25T23:06:20.736Z,99895.19
2022-12-25T23:08:47.914Z,99903.69
2022-12-25T23:11:14.418Z,99903.94
2022-12-25T23:13:59.423Z,99909.63
2022-12-25T23:16:26.176Z,99915.00
2022-12-25T23:19:11.395Z,99920.78
2022-12-25T23:21:56.861Z,99908.16
2022-12-25T23:24:41.812Z,99901.69
2022-12-25T23:27:08.495Z,99899.63
2022-12-25T23:29:37.719Z,99903.16
2022-12-25T23:32:04.594Z,99906.63
2022-12-25T23:34:31.274Z,99898.56
2022-12-25T23:36:57.896Z,99892.56
2022-12-25T23:39:24.474Z,99891.34
2022-12-25T23:41:51.035Z,99893.06
2022-12-25T23:44:17.523Z,99890.63
2022-12-25T23:46:52.545Z,99887.41
2022-12-25T23:49:20.715Z,99884.00
2022-12-25T23:51:47.466Z,99893.03
2022-12-25T23:54:16.058Z,99893.13
2022-12-25T23:56:42.974Z,99891.94
2022-12-25T23:59:09.759Z,99888.22
